Aeroporto :
LOGIN :

Iscrizione | Disclaimer

   EN    FR    IT 

 










Sommario :    VFR   VFR Marginale   IFR   IFR Intensivo   IFR Molto Intensivo
Visibilità : 
Base nubi : 
>= 8 km
>= 3000ft
5 / 8 km
1000 / 3000 ft
1500m / 5 km
500 / 1000 ft
800 / 1500m
200 / 500 ft
< 800m
< 200 ft
Simboli :   Temporali  Nebbia  Neve Forte  Precipitazioni Forti  Vento > 20 kt
SIGMETs :   Varie  Temporali  Ghiacco  Turbolenza  Onda orograficha  Ceneri Vulcaniche






- Altitudine del aeroporto : 135 ft
- Codice IATA : EDI


EGPH - Edinburgh

ULTIMO METAR :
  • 091120Z 05015KT 9999 SCT010 16/13 Q1024

METARs OBSOLETI :
  • 091050Z 06014KT 9999 FEW010 SCT015 16/13 Q1024
  • 091020Z 05014KT 9999 SCT010 16/13 Q1024
  • 090950Z 06014KT 9999 FEW010 BKN015 15/13 Q1025
  • 090920Z 05012KT 9999 BKN008 14/13 Q1025
  • 090850Z 06011KT 9999 SCT011 BKN019 14/13 Q1025

TAF TAF EGPH
Valido dal 09 a 12 ore il 10 a 12 ore UTC


091055Z 0912/1012 06015KT 9999 FEW015
PROB40 0920/0923 BKN008
BECMG 0923/1002 BKN008
PROB30
TEMPO 1000/1008 6000 BKN004
BECMG 1008/1011 FEW015
ATIS : +44 131 339 2823



MetMap, La meteo Aeronautica in un colpo d'occhio ! - Copyright ORBIFLY Dicembre 2007 - Disclaimer

ORBIFLY MET'MAP TEAM :

Programmazione e sviluppo : Alexandra Zaïnal
Concezione : Baudouin d'Aumeries
Aiuto per la programmazione : Marc-Olivier Méhu
Supporto tecnico e logistico : Manuel Goepfert
Aiuto per la traduzione : Arnaldo La Scala

Contatto : metmap@orbifly.com




FONTI E CREDITI :

   NOAA